sensor_id;sensor_type;location;lat;lon;timestamp;P1;durP1;ratioP1;P2;durP2;ratioP2
39654;SDS011;25336;59.944;11.010;2023-09-18T00:00:42;2.38;;;1.10;;
39654;SDS011;25336;59.944;11.010;2023-09-18T00:03:11;4.07;;;0.98;;
39654;SDS011;25336;59.944;11.010;2023-09-18T00:05:37;2.75;;;1.20;;
39654;SDS011;25336;59.944;11.010;2023-09-18T00:08:03;1.55;;;1.02;;
39654;SDS011;25336;59.944;11.010;2023-09-18T00:10:28;1.92;;;1.02;;
39654;SDS011;25336;59.944;11.010;2023-09-18T00:12:55;6.60;;;1.30;;
39654;SDS011;25336;59.944;11.010;2023-09-18T00:15:21;2.22;;;1.05;;
39654;SDS011;25336;59.944;11.010;2023-09-18T00:17:47;1.23;;;1.13;;
39654;SDS011;25336;59.944;11.010;2023-09-18T00:20:12;1.77;;;1.30;;
39654;SDS011;25336;59.944;11.010;2023-09-18T00:22:38;1.55;;;0.90;;
39654;SDS011;25336;59.944;11.010;2023-09-18T00:25:04;1.20;;;1.10;;
39654;SDS011;25336;59.944;11.010;2023-09-18T00:27:30;2.33;;;0.90;;
39654;SDS011;25336;59.944;11.010;2023-09-18T00:29:57;4.18;;;0.77;;
39654;SDS011;25336;59.944;11.010;2023-09-18T00:32:23;1.02;;;0.90;;
39654;SDS011;25336;59.944;11.010;2023-09-18T00:34:49;2.05;;;1.10;;
39654;SDS011;25336;59.944;11.010;2023-09-18T00:37:14;0.70;;;0.70;;
39654;SDS011;25336;59.944;11.010;2023-09-18T00:39:42;2.88;;;1.30;;
39654;SDS011;25336;59.944;11.010;2023-09-18T00:42:08;1.55;;;1.00;;
39654;SDS011;25336;59.944;11.010;2023-09-18T00:44:38;1.17;;;0.93;;
39654;SDS011;25336;59.944;11.010;2023-09-18T00:47:06;2.75;;;0.98;;
39654;SDS011;25336;59.944;11.010;2023-09-18T00:49:32;1.33;;;1.00;;
39654;SDS011;25336;59.944;11.010;2023-09-18T00:51:59;1.05;;;0.80;;
39654;SDS011;25336;59.944;11.010;2023-09-18T00:54:25;2.80;;;1.08;;
39654;SDS011;25336;59.944;11.010;2023-09-18T00:56:51;4.63;;;1.23;;
39654;SDS011;25336;59.944;11.010;2023-09-18T00:59:20;2.08;;;1.00;;
39654;SDS011;25336;59.944;11.010;2023-09-18T01:01:46;1.48;;;0.98;;
39654;SDS011;25336;59.944;11.010;2023-09-18T01:04:14;1.55;;;0.90;;
39654;SDS011;25336;59.944;11.010;2023-09-18T01:06:41;1.75;;;1.10;;
39654;SDS011;25336;59.944;11.010;2023-09-18T01:09:07;1.00;;;0.90;;
39654;SDS011;25336;59.944;11.010;2023-09-18T01:11:54;2.10;;;1.00;;
39654;SDS011;25336;59.944;11.010;2023-09-18T01:15:02;9.50;;;1.08;;
39654;SDS011;25336;59.944;11.010;2023-09-18T01:17:36;0.90;;;0.80;;
39654;SDS011;25336;59.944;11.010;2023-09-18T01:20:08;2.92;;;0.88;;
39654;SDS011;25336;59.944;11.010;2023-09-18T01:22:35;2.13;;;1.00;;
39654;SDS011;25336;59.944;11.010;2023-09-18T01:25:00;1.80;;;0.85;;
39654;SDS011;25336;59.944;11.010;2023-09-18T01:27:26;1.15;;;1.05;;
39654;SDS011;25336;59.944;11.010;2023-09-18T01:29:51;1.35;;;0.77;;
39654;SDS011;25336;59.944;11.010;2023-09-18T01:32:18;0.90;;;0.80;;
39654;SDS011;25336;59.944;11.010;2023-09-18T01:34:50;1.63;;;0.93;;
39654;SDS011;25336;59.944;11.010;2023-09-18T01:37:23;0.93;;;0.80;;
39654;SDS011;25336;59.944;11.010;2023-09-18T01:39:52;1.00;;;0.90;;
39654;SDS011;25336;59.944;11.010;2023-09-18T01:42:19;2.05;;;0.82;;
39654;SDS011;25336;59.944;11.010;2023-09-18T01:44:46;1.10;;;0.80;;
39654;SDS011;25336;59.944;11.010;2023-09-18T01:47:14;0.85;;;0.80;;
39654;SDS011;25336;59.944;11.010;2023-09-18T01:49:42;1.42;;;1.02;;
39654;SDS011;25336;59.944;11.010;2023-09-18T01:52:08;1.00;;;0.80;;
39654;SDS011;25336;59.944;11.010;2023-09-18T01:54:34;2.08;;;1.00;;
39654;SDS011;25336;59.944;11.010;2023-09-18T01:57:01;4.78;;;1.10;;
39654;SDS011;25336;59.944;11.010;2023-09-18T01:59:27;3.13;;;1.23;;
39654;SDS011;25336;59.944;11.010;2023-09-18T02:01:53;2.78;;;0.95;;
39654;SDS011;25336;59.944;11.010;2023-09-18T02:04:20;1.63;;;1.08;;
39654;SDS011;25336;59.944;11.010;2023-09-18T02:06:47;0.80;;;0.80;;
39654;SDS011;25336;59.944;11.010;2023-09-18T02:09:15;3.22;;;0.90;;
39654;SDS011;25336;59.944;11.010;2023-09-18T02:11:42;1.08;;;0.80;;
39654;SDS011;25336;59.944;11.010;2023-09-18T02:14:09;1.25;;;1.13;;
39654;SDS011;25336;59.944;11.010;2023-09-18T02:16:36;1.35;;;1.08;;
39654;SDS011;25336;59.944;11.010;2023-09-18T02:19:03;0.75;;;0.75;;
39654;SDS011;25336;59.944;11.010;2023-09-18T02:21:29;2.83;;;1.20;;
39654;SDS011;25336;59.944;11.010;2023-09-18T02:23:55;2.05;;;1.20;;
39654;SDS011;25336;59.944;11.010;2023-09-18T02:26:22;1.00;;;0.90;;
39654;SDS011;25336;59.944;11.010;2023-09-18T02:28:48;0.95;;;0.90;;
39654;SDS011;25336;59.944;11.010;2023-09-18T02:31:14;1.45;;;0.95;;
39654;SDS011;25336;59.944;11.010;2023-09-18T02:33:40;0.93;;;0.82;;
39654;SDS011;25336;59.944;11.010;2023-09-18T02:36:06;0.90;;;0.90;;
39654;SDS011;25336;59.944;11.010;2023-09-18T02:38:32;4.38;;;0.93;;
39654;SDS011;25336;59.944;11.010;2023-09-18T02:40:59;2.15;;;0.93;;
39654;SDS011;25336;59.944;11.010;2023-09-18T02:43:25;5.40;;;0.90;;
39654;SDS011;25336;59.944;11.010;2023-09-18T02:45:51;3.88;;;0.85;;
39654;SDS011;25336;59.944;11.010;2023-09-18T02:48:17;1.00;;;1.00;;
39654;SDS011;25336;59.944;11.010;2023-09-18T02:50:43;0.90;;;0.70;;
39654;SDS011;25336;59.944;11.010;2023-09-18T02:53:19;3.65;;;0.90;;
39654;SDS011;25336;59.944;11.010;2023-09-18T02:55:46;0.60;;;0.60;;
39654;SDS011;25336;59.944;11.010;2023-09-18T02:58:14;0.80;;;0.80;;
39654;SDS011;25336;59.944;11.010;2023-09-18T03:00:47;2.25;;;0.73;;
39654;SDS011;25336;59.944;11.010;2023-09-18T03:03:14;0.75;;;0.75;;
39654;SDS011;25336;59.944;11.010;2023-09-18T03:05:41;4.72;;;1.10;;
39654;SDS011;25336;59.944;11.010;2023-09-18T03:08:07;1.27;;;0.65;;
39654;SDS011;25336;59.944;11.010;2023-09-18T03:10:34;0.88;;;0.80;;
39654;SDS011;25336;59.944;11.010;2023-09-18T03:13:03;1.92;;;1.00;;
39654;SDS011;25336;59.944;11.010;2023-09-18T03:15:29;2.53;;;0.85;;
39654;SDS011;25336;59.944;11.010;2023-09-18T03:17:55;1.60;;;1.00;;
39654;SDS011;25336;59.944;11.010;2023-09-18T03:20:22;2.20;;;0.82;;
39654;SDS011;25336;59.944;11.010;2023-09-18T03:22:49;1.52;;;0.80;;
39654;SDS011;25336;59.944;11.010;2023-09-18T03:25:23;0.75;;;0.75;;
39654;SDS011;25336;59.944;11.010;2023-09-18T03:27:52;2.80;;;0.85;;
39654;SDS011;25336;59.944;11.010;2023-09-18T03:30:19;2.53;;;1.50;;
39654;SDS011;25336;59.944;11.010;2023-09-18T03:32:45;1.92;;;1.20;;
39654;SDS011;25336;59.944;11.010;2023-09-18T03:35:11;1.13;;;0.80;;
39654;SDS011;25336;59.944;11.010;2023-09-18T03:37:52;0.73;;;0.70;;
39654;SDS011;25336;59.944;11.010;2023-09-18T03:40:21;0.70;;;0.70;;
39654;SDS011;25336;59.944;11.010;2023-09-18T03:42:47;1.13;;;1.02;;
39654;SDS011;25336;59.944;11.010;2023-09-18T03:45:14;1.75;;;0.75;;
39654;SDS011;25336;59.944;11.010;2023-09-18T03:47:41;2.13;;;0.70;;
39654;SDS011;25336;59.944;11.010;2023-09-18T03:50:07;0.80;;;0.80;;
39654;SDS011;25336;59.944;11.010;2023-09-18T03:52:37;1.17;;;0.80;;
39654;SDS011;25336;59.944;11.010;2023-09-18T03:55:04;3.78;;;1.10;;
39654;SDS011;25336;59.944;11.010;2023-09-18T03:57:30;1.65;;;1.15;;
39654;SDS011;25336;59.944;11.010;2023-09-18T03:59:55;2.88;;;0.88;;
39654;SDS011;25336;59.944;11.010;2023-09-18T04:02:23;1.98;;;0.90;;
39654;SDS011;25336;59.944;11.010;2023-09-18T04:04:50;0.90;;;0.90;;
39654;SDS011;25336;59.944;11.010;2023-09-18T04:07:15;1.50;;;0.90;;
39654;SDS011;25336;59.944;11.010;2023-09-18T04:09:41;0.93;;;0.80;;
39654;SDS011;25336;59.944;11.010;2023-09-18T04:12:07;2.35;;;0.80;;
39654;SDS011;25336;59.944;11.010;2023-09-18T04:14:33;1.77;;;1.25;;
39654;SDS011;25336;59.944;11.010;2023-09-18T04:16:59;3.30;;;0.90;;
39654;SDS011;25336;59.944;11.010;2023-09-18T04:19:27;1.60;;;0.93;;
39654;SDS011;25336;59.944;11.010;2023-09-18T04:21:53;0.73;;;0.73;;
39654;SDS011;25336;59.944;11.010;2023-09-18T04:24:19;2.08;;;0.90;;
39654;SDS011;25336;59.944;11.010;2023-09-18T04:26:45;1.38;;;0.80;;
39654;SDS011;25336;59.944;11.010;2023-09-18T04:29:11;1.05;;;0.90;;
39654;SDS011;25336;59.944;11.010;2023-09-18T04:31:36;1.08;;;0.82;;
39654;SDS011;25336;59.944;11.010;2023-09-18T04:34:03;1.27;;;1.10;;
39654;SDS011;25336;59.944;11.010;2023-09-18T04:36:29;1.02;;;0.93;;
39654;SDS011;25336;59.944;11.010;2023-09-18T04:38:54;2.25;;;0.90;;
39654;SDS011;25336;59.944;11.010;2023-09-18T04:41:20;1.33;;;1.13;;
39654;SDS011;25336;59.944;11.010;2023-09-18T04:43:46;1.73;;;1.05;;
39654;SDS011;25336;59.944;11.010;2023-09-18T04:46:11;3.80;;;0.80;;
39654;SDS011;25336;59.944;11.010;2023-09-18T04:48:37;1.58;;;0.93;;
39654;SDS011;25336;59.944;11.010;2023-09-18T04:51:03;5.20;;;1.10;;
39654;SDS011;25336;59.944;11.010;2023-09-18T04:53:29;1.20;;;0.80;;
39654;SDS011;25336;59.944;11.010;2023-09-18T04:55:55;1.15;;;1.05;;
39654;SDS011;25336;59.944;11.010;2023-09-18T04:58:21;1.15;;;0.93;;
39654;SDS011;25336;59.944;11.010;2023-09-18T05:00:47;1.83;;;0.93;;
39654;SDS011;25336;59.944;11.010;2023-09-18T05:03:19;0.98;;;0.90;;
39654;SDS011;25336;59.944;11.010;2023-09-18T05:05:45;1.95;;;1.10;;
39654;SDS011;25336;59.944;11.010;2023-09-18T05:08:11;1.45;;;1.08;;
39654;SDS011;25336;59.944;11.010;2023-09-18T05:10:36;1.27;;;1.10;;
39654;SDS011;25336;59.944;11.010;2023-09-18T05:13:02;2.50;;;1.40;;
39654;SDS011;25336;59.944;11.010;2023-09-18T05:15:29;2.47;;;1.05;;
39654;SDS011;25336;59.944;11.010;2023-09-18T05:17:55;2.45;;;1.15;;
39654;SDS011;25336;59.944;11.010;2023-09-18T05:20:23;2.90;;;1.40;;
39654;SDS011;25336;59.944;11.010;2023-09-18T05:22:50;1.90;;;1.00;;
39654;SDS011;25336;59.944;11.010;2023-09-18T05:25:19;1.90;;;1.15;;
39654;SDS011;25336;59.944;11.010;2023-09-18T05:27:49;1.65;;;0.95;;
39654;SDS011;25336;59.944;11.010;2023-09-18T05:30:21;2.03;;;1.17;;
39654;SDS011;25336;59.944;11.010;2023-09-18T05:32:55;3.80;;;1.30;;
39654;SDS011;25336;59.944;11.010;2023-09-18T05:35:22;2.67;;;1.10;;
39654;SDS011;25336;59.944;11.010;2023-09-18T05:37:48;2.22;;;1.00;;
39654;SDS011;25336;59.944;11.010;2023-09-18T05:40:16;2.20;;;1.13;;
39654;SDS011;25336;59.944;11.010;2023-09-18T05:42:42;1.77;;;1.10;;
39654;SDS011;25336;59.944;11.010;2023-09-18T05:45:09;1.40;;;0.90;;
39654;SDS011;25336;59.944;11.010;2023-09-18T05:47:36;3.08;;;1.15;;
39654;SDS011;25336;59.944;11.010;2023-09-18T05:50:03;2.40;;;1.55;;
39654;SDS011;25336;59.944;11.010;2023-09-18T05:52:31;5.25;;;2.20;;
39654;SDS011;25336;59.944;11.010;2023-09-18T05:54:57;1.13;;;1.02;;
39654;SDS011;25336;59.944;11.010;2023-09-18T05:57:23;1.67;;;1.27;;
39654;SDS011;25336;59.944;11.010;2023-09-18T05:59:48;1.20;;;1.10;;
39654;SDS011;25336;59.944;11.010;2023-09-18T06:02:14;2.75;;;1.30;;
39654;SDS011;25336;59.944;11.010;2023-09-18T06:04:41;1.35;;;1.25;;
39654;SDS011;25336;59.944;11.010;2023-09-18T06:07:07;1.35;;;1.20;;
39654;SDS011;25336;59.944;11.010;2023-09-18T06:09:33;2.25;;;1.45;;
39654;SDS011;25336;59.944;11.010;2023-09-18T06:11:59;1.67;;;1.23;;
39654;SDS011;25336;59.944;11.010;2023-09-18T06:14:25;2.05;;;1.40;;
39654;SDS011;25336;59.944;11.010;2023-09-18T06:16:51;2.42;;;1.95;;
39654;SDS011;25336;59.944;11.010;2023-09-18T06:19:16;2.88;;;1.33;;
39654;SDS011;25336;59.944;11.010;2023-09-18T06:21:42;2.17;;;1.67;;
39654;SDS011;25336;59.944;11.010;2023-09-18T06:24:09;4.35;;;1.52;;
39654;SDS011;25336;59.944;11.010;2023-09-18T06:26:34;3.05;;;1.90;;
39654;SDS011;25336;59.944;11.010;2023-09-18T06:29:00;4.53;;;2.00;;
39654;SDS011;25336;59.944;11.010;2023-09-18T06:31:27;2.30;;;1.50;;
39654;SDS011;25336;59.944;11.010;2023-09-18T06:33:53;4.00;;;2.15;;
39654;SDS011;25336;59.944;11.010;2023-09-18T06:36:18;2.70;;;1.55;;
39654;SDS011;25336;59.944;11.010;2023-09-18T06:38:44;6.97;;;1.70;;
39654;SDS011;25336;59.944;11.010;2023-09-18T06:41:09;1.55;;;1.45;;
39654;SDS011;25336;59.944;11.010;2023-09-18T06:43:35;2.83;;;1.80;;
39654;SDS011;25336;59.944;11.010;2023-09-18T06:46:01;2.03;;;1.80;;
39654;SDS011;25336;59.944;11.010;2023-09-18T06:48:26;5.63;;;2.33;;
39654;SDS011;25336;59.944;11.010;2023-09-18T06:50:57;4.65;;;2.45;;
39654;SDS011;25336;59.944;11.010;2023-09-18T06:53:23;2.75;;;2.40;;
39654;SDS011;25336;59.944;11.010;2023-09-18T06:55:48;6.72;;;2.00;;
39654;SDS011;25336;59.944;11.010;2023-09-18T06:58:14;3.88;;;1.95;;
39654;SDS011;25336;59.944;11.010;2023-09-18T07:00:39;6.63;;;3.47;;
39654;SDS011;25336;59.944;11.010;2023-09-18T07:03:05;1.98;;;1.75;;
39654;SDS011;25336;59.944;11.010;2023-09-18T07:05:31;2.35;;;1.70;;
39654;SDS011;25336;59.944;11.010;2023-09-18T07:07:57;2.30;;;2.10;;
39654;SDS011;25336;59.944;11.010;2023-09-18T07:10:22;2.47;;;1.95;;
39654;SDS011;25336;59.944;11.010;2023-09-18T07:12:48;3.47;;;1.92;;
39654;SDS011;25336;59.944;11.010;2023-09-18T07:15:14;2.53;;;2.10;;
39654;SDS011;25336;59.944;11.010;2023-09-18T07:17:40;2.85;;;2.40;;
39654;SDS011;25336;59.944;11.010;2023-09-18T07:20:05;2.80;;;2.33;;
39654;SDS011;25336;59.944;11.010;2023-09-18T07:22:38;2.05;;;1.95;;
39654;SDS011;25336;59.944;11.010;2023-09-18T07:25:05;3.33;;;2.80;;
39654;SDS011;25336;59.944;11.010;2023-09-18T07:27:32;3.35;;;2.45;;
39654;SDS011;25336;59.944;11.010;2023-09-18T07:29:57;3.60;;;2.20;;
39654;SDS011;25336;59.944;11.010;2023-09-18T07:32:23;7.38;;;2.65;;
39654;SDS011;25336;59.944;11.010;2023-09-18T07:34:51;2.85;;;2.40;;
39654;SDS011;25336;59.944;11.010;2023-09-18T07:37:17;2.30;;;2.10;;
39654;SDS011;25336;59.944;11.010;2023-09-18T07:39:45;2.53;;;2.25;;
39654;SDS011;25336;59.944;11.010;2023-09-18T07:42:11;2.50;;;2.30;;
39654;SDS011;25336;59.944;11.010;2023-09-18T07:44:37;2.95;;;2.50;;
39654;SDS011;25336;59.944;11.010;2023-09-18T07:47:03;3.55;;;2.60;;
39654;SDS011;25336;59.944;11.010;2023-09-18T07:49:28;4.45;;;2.97;;
39654;SDS011;25336;59.944;11.010;2023-09-18T07:51:54;3.17;;;2.10;;
39654;SDS011;25336;59.944;11.010;2023-09-18T07:54:20;3.17;;;2.20;;
39654;SDS011;25336;59.944;11.010;2023-09-18T07:56:46;2.42;;;2.22;;
39654;SDS011;25336;59.944;11.010;2023-09-18T07:59:11;2.63;;;1.83;;
39654;SDS011;25336;59.944;11.010;2023-09-18T08:01:39;3.53;;;2.38;;
39654;SDS011;25336;59.944;11.010;2023-09-18T08:04:06;3.58;;;2.38;;
39654;SDS011;25336;59.944;11.010;2023-09-18T08:06:31;3.40;;;2.90;;
39654;SDS011;25336;59.944;11.010;2023-09-18T08:08:57;3.95;;;2.95;;
39654;SDS011;25336;59.944;11.010;2023-09-18T08:11:23;4.43;;;2.90;;
39654;SDS011;25336;59.944;11.010;2023-09-18T08:13:48;3.53;;;2.75;;
39654;SDS011;25336;59.944;11.010;2023-09-18T08:16:14;4.70;;;2.38;;
39654;SDS011;25336;59.944;11.010;2023-09-18T08:18:40;2.88;;;2.38;;
39654;SDS011;25336;59.944;11.010;2023-09-18T08:21:06;4.95;;;2.65;;
39654;SDS011;25336;59.944;11.010;2023-09-18T08:23:34;4.68;;;2.40;;
39654;SDS011;25336;59.944;11.010;2023-09-18T08:26:01;6.10;;;2.55;;
39654;SDS011;25336;59.944;11.010;2023-09-18T08:28:28;4.45;;;2.70;;
39654;SDS011;25336;59.944;11.010;2023-09-18T08:30:54;6.50;;;3.35;;
39654;SDS011;25336;59.944;11.010;2023-09-18T08:33:22;6.28;;;3.20;;
39654;SDS011;25336;59.944;11.010;2023-09-18T08:35:48;5.03;;;2.83;;
39654;SDS011;25336;59.944;11.010;2023-09-18T08:38:14;4.80;;;3.30;;
39654;SDS011;25336;59.944;11.010;2023-09-18T08:40:40;5.68;;;2.78;;
39654;SDS011;25336;59.944;11.010;2023-09-18T08:43:10;3.83;;;2.78;;
39654;SDS011;25336;59.944;11.010;2023-09-18T08:45:54;4.47;;;2.65;;
39654;SDS011;25336;59.944;11.010;2023-09-18T08:48:26;3.72;;;2.90;;
39654;SDS011;25336;59.944;11.010;2023-09-18T08:50:59;2.75;;;2.35;;
39654;SDS011;25336;59.944;11.010;2023-09-18T08:53:33;3.13;;;2.45;;
39654;SDS011;25336;59.944;11.010;2023-09-18T08:56:00;6.25;;;2.80;;
39654;SDS011;25336;59.944;11.010;2023-09-18T08:58:34;2.92;;;2.63;;
39654;SDS011;25336;59.944;11.010;2023-09-18T09:01:04;2.55;;;2.35;;
39654;SDS011;25336;59.944;11.010;2023-09-18T09:03:34;9.02;;;3.50;;
39654;SDS011;25336;59.944;11.010;2023-09-18T09:06:04;4.53;;;2.88;;
39654;SDS011;25336;59.944;11.010;2023-09-18T09:08:34;3.60;;;2.97;;
39654;SDS011;25336;59.944;11.010;2023-09-18T09:11:00;3.03;;;2.20;;
39654;SDS011;25336;59.944;11.010;2023-09-18T09:13:26;3.20;;;2.15;;
39654;SDS011;25336;59.944;11.010;2023-09-18T09:15:52;4.72;;;2.50;;
39654;SDS011;25336;59.944;11.010;2023-09-18T09:18:21;4.25;;;2.35;;
39654;SDS011;25336;59.944;11.010;2023-09-18T09:20:57;3.50;;;2.65;;
39654;SDS011;25336;59.944;11.010;2023-09-18T09:23:27;4.95;;;2.90;;
39654;SDS011;25336;59.944;11.010;2023-09-18T09:26:14;6.72;;;2.60;;
39654;SDS011;25336;59.944;11.010;2023-09-18T09:28:42;4.07;;;2.47;;
39654;SDS011;25336;59.944;11.010;2023-09-18T09:31:09;3.70;;;2.47;;
39654;SDS011;25336;59.944;11.010;2023-09-18T09:33:39;2.50;;;2.17;;
39654;SDS011;25336;59.944;11.010;2023-09-18T09:36:18;5.93;;;2.60;;
39654;SDS011;25336;59.944;11.010;2023-09-18T09:38:44;5.30;;;3.17;;
39654;SDS011;25336;59.944;11.010;2023-09-18T09:41:13;4.68;;;2.60;;
39654;SDS011;25336;59.944;11.010;2023-09-18T09:43:41;4.15;;;2.20;;
39654;SDS011;25336;59.944;11.010;2023-09-18T09:46:08;2.83;;;2.25;;
39654;SDS011;25336;59.944;11.010;2023-09-18T09:51:30;3.00;;;2.30;;
39654;SDS011;25336;59.944;11.010;2023-09-18T09:53:57;6.20;;;2.60;;
39654;SDS011;25336;59.944;11.010;2023-09-18T09:59:08;31.77;;;5.63;;
39654;SDS011;25336;59.944;11.010;2023-09-18T10:01:34;14.57;;;3.47;;
39654;SDS011;25336;59.944;11.010;2023-09-18T10:04:04;6.90;;;2.97;;
39654;SDS011;25336;59.944;11.010;2023-09-18T10:06:33;4.97;;;2.50;;
39654;SDS011;25336;59.944;11.010;2023-09-18T10:09:01;9.93;;;3.03;;
39654;SDS011;25336;59.944;11.010;2023-09-18T10:11:28;50.90;;;9.57;;
39654;SDS011;25336;59.944;11.010;2023-09-18T10:13:55;4.03;;;2.22;;
39654;SDS011;25336;59.944;11.010;2023-09-18T10:16:28;26.40;;;4.35;;
39654;SDS011;25336;59.944;11.010;2023-09-18T10:19:02;6.10;;;2.33;;
39654;SDS011;25336;59.944;11.010;2023-09-18T10:24:45;7.10;;;2.42;;
39654;SDS011;25336;59.944;11.010;2023-09-18T10:27:14;36.25;;;6.32;;
39654;SDS011;25336;59.944;11.010;2023-09-18T10:29:41;6.43;;;2.40;;
39654;SDS011;25336;59.944;11.010;2023-09-18T10:32:07;40.33;;;7.75;;
39654;SDS011;25336;59.944;11.010;2023-09-18T10:34:33;5.28;;;2.72;;
39654;SDS011;25336;59.944;11.010;2023-09-18T10:37:00;4.32;;;2.28;;
39654;SDS011;25336;59.944;11.010;2023-09-18T10:39:34;3.25;;;1.90;;
39654;SDS011;25336;59.944;11.010;2023-09-18T10:42:02;2.25;;;1.83;;
39654;SDS011;25336;59.944;11.010;2023-09-18T10:44:28;2.08;;;1.85;;
39654;SDS011;25336;59.944;11.010;2023-09-18T10:46:58;3.15;;;1.90;;
39654;SDS011;25336;59.944;11.010;2023-09-18T10:49:26;2.92;;;2.50;;
39654;SDS011;25336;59.944;11.010;2023-09-18T10:51:55;3.47;;;2.25;;
39654;SDS011;25336;59.944;11.010;2023-09-18T10:54:23;4.97;;;2.25;;
39654;SDS011;25336;59.944;11.010;2023-09-18T10:56:49;2.53;;;1.90;;
39654;SDS011;25336;59.944;11.010;2023-09-18T10:59:16;3.45;;;2.00;;
39654;SDS011;25336;59.944;11.010;2023-09-18T11:01:42;2.95;;;1.80;;
39654;SDS011;25336;59.944;11.010;2023-09-18T11:04:09;5.03;;;2.22;;
39654;SDS011;25336;59.944;11.010;2023-09-18T11:09:26;3.45;;;2.03;;
39654;SDS011;25336;59.944;11.010;2023-09-18T11:11:53;3.40;;;2.20;;
39654;SDS011;25336;59.944;11.010;2023-09-18T11:14:23;3.60;;;2.50;;
39654;SDS011;25336;59.944;11.010;2023-09-18T11:17:36;6.50;;;2.55;;
39654;SDS011;25336;59.944;11.010;2023-09-18T11:20:06;3.08;;;1.95;;
39654;SDS011;25336;59.944;11.010;2023-09-18T11:23:16;7.63;;;2.63;;
39654;SDS011;25336;59.944;11.010;2023-09-18T11:25:40;3.13;;;2.17;;
39654;SDS011;25336;59.944;11.010;2023-09-18T11:28:07;2.90;;;1.95;;
39654;SDS011;25336;59.944;11.010;2023-09-18T11:30:37;5.13;;;1.90;;
39654;SDS011;25336;59.944;11.010;2023-09-18T11:33:12;4.07;;;2.15;;
39654;SDS011;25336;59.944;11.010;2023-09-18T11:35:38;1.98;;;1.80;;
39654;SDS011;25336;59.944;11.010;2023-09-18T11:38:17;1.98;;;1.42;;
39654;SDS011;25336;59.944;11.010;2023-09-18T11:40:43;2.80;;;1.95;;
39654;SDS011;25336;59.944;11.010;2023-09-18T11:43:24;3.00;;;1.60;;
39654;SDS011;25336;59.944;11.010;2023-09-18T11:45:54;3.90;;;1.67;;
39654;SDS011;25336;59.944;11.010;2023-09-18T11:48:22;2.35;;;1.60;;
39654;SDS011;25336;59.944;11.010;2023-09-18T11:50:49;2.20;;;1.85;;
39654;SDS011;25336;59.944;11.010;2023-09-18T11:53:17;2.05;;;1.88;;
39654;SDS011;25336;59.944;11.010;2023-09-18T11:55:43;2.67;;;1.70;;
39654;SDS011;25336;59.944;11.010;2023-09-18T11:58:10;3.53;;;1.90;;
39654;SDS011;25336;59.944;11.010;2023-09-18T12:00:36;6.50;;;1.92;;
39654;SDS011;25336;59.944;11.010;2023-09-18T12:03:23;4.13;;;2.28;;
39654;SDS011;25336;59.944;11.010;2023-09-18T12:05:53;3.55;;;1.67;;
39654;SDS011;25336;59.944;11.010;2023-09-18T12:08:19;3.42;;;1.83;;
39654;SDS011;25336;59.944;11.010;2023-09-18T12:10:48;4.18;;;2.08;;
39654;SDS011;25336;59.944;11.010;2023-09-18T12:15:43;1.67;;;1.30;;
39654;SDS011;25336;59.944;11.010;2023-09-18T12:18:09;3.70;;;2.00;;
39654;SDS011;25336;59.944;11.010;2023-09-18T12:20:44;4.32;;;2.00;;
39654;SDS011;25336;59.944;11.010;2023-09-18T12:23:11;13.48;;;2.17;;
39654;SDS011;25336;59.944;11.010;2023-09-18T12:25:38;3.10;;;1.80;;
39654;SDS011;25336;59.944;11.010;2023-09-18T12:28:05;2.75;;;2.25;;
39654;SDS011;25336;59.944;11.010;2023-09-18T12:30:32;3.58;;;2.20;;
39654;SDS011;25336;59.944;11.010;2023-09-18T12:32:58;3.45;;;2.00;;
39654;SDS011;25336;59.944;11.010;2023-09-18T12:35:26;2.40;;;2.13;;
39654;SDS011;25336;59.944;11.010;2023-09-18T12:37:55;4.80;;;2.00;;
39654;SDS011;25336;59.944;11.010;2023-09-18T12:40:28;3.67;;;1.80;;
39654;SDS011;25336;59.944;11.010;2023-09-18T12:42:58;3.78;;;1.90;;
39654;SDS011;25336;59.944;11.010;2023-09-18T12:45:24;5.25;;;2.28;;
39654;SDS011;25336;59.944;11.010;2023-09-18T12:47:51;2.67;;;2.13;;
39654;SDS011;25336;59.944;11.010;2023-09-18T12:50:19;2.63;;;2.10;;
39654;SDS011;25336;59.944;11.010;2023-09-18T12:52:45;3.70;;;2.22;;
39654;SDS011;25336;59.944;11.010;2023-09-18T12:58:09;3.47;;;2.15;;
39654;SDS011;25336;59.944;11.010;2023-09-18T13:00:36;3.63;;;2.15;;
39654;SDS011;25336;59.944;11.010;2023-09-18T13:03:04;6.20;;;2.45;;
39654;SDS011;25336;59.944;11.010;2023-09-18T13:05:31;3.67;;;2.05;;
39654;SDS011;25336;59.944;11.010;2023-09-18T13:08:03;2.75;;;2.20;;
39654;SDS011;25336;59.944;11.010;2023-09-18T13:10:29;3.25;;;2.30;;
39654;SDS011;25336;59.944;11.010;2023-09-18T13:13:15;5.82;;;2.47;;
39654;SDS011;25336;59.944;11.010;2023-09-18T13:15:42;4.68;;;1.92;;
39654;SDS011;25336;59.944;11.010;2023-09-18T13:18:10;3.67;;;2.33;;
39654;SDS011;25336;59.944;11.010;2023-09-18T13:20:36;3.88;;;2.25;;
39654;SDS011;25336;59.944;11.010;2023-09-18T13:23:02;2.53;;;2.20;;
39654;SDS011;25336;59.944;11.010;2023-09-18T13:25:31;9.15;;;2.70;;
39654;SDS011;25336;59.944;11.010;2023-09-18T13:27:59;4.22;;;2.72;;
39654;SDS011;25336;59.944;11.010;2023-09-18T13:30:26;4.13;;;2.50;;
39654;SDS011;25336;59.944;11.010;2023-09-18T13:33:00;2.70;;;2.50;;
39654;SDS011;25336;59.944;11.010;2023-09-18T13:35:31;4.75;;;2.80;;
39654;SDS011;25336;59.944;11.010;2023-09-18T13:37:58;6.30;;;2.80;;
39654;SDS011;25336;59.944;11.010;2023-09-18T13:40:23;9.93;;;3.22;;
39654;SDS011;25336;59.944;11.010;2023-09-18T13:42:49;4.88;;;2.88;;
39654;SDS011;25336;59.944;11.010;2023-09-18T13:45:15;3.80;;;2.72;;
39654;SDS011;25336;59.944;11.010;2023-09-18T13:47:43;2.47;;;2.15;;
39654;SDS011;25336;59.944;11.010;2023-09-18T13:50:09;7.68;;;3.22;;
39654;SDS011;25336;59.944;11.010;2023-09-18T13:52:35;3.55;;;2.58;;
39654;SDS011;25336;59.944;11.010;2023-09-18T13:55:04;3.47;;;2.47;;
39654;SDS011;25336;59.944;11.010;2023-09-18T13:57:30;6.35;;;2.67;;
39654;SDS011;25336;59.944;11.010;2023-09-18T13:59:56;4.45;;;2.75;;
39654;SDS011;25336;59.944;11.010;2023-09-18T14:02:22;2.33;;;2.10;;
39654;SDS011;25336;59.944;11.010;2023-09-18T14:04:52;4.65;;;2.80;;
39654;SDS011;25336;59.944;11.010;2023-09-18T14:07:18;2.88;;;2.58;;
39654;SDS011;25336;59.944;11.010;2023-09-18T14:09:43;6.47;;;3.10;;
39654;SDS011;25336;59.944;11.010;2023-09-18T14:12:11;5.28;;;3.55;;
39654;SDS011;25336;59.944;11.010;2023-09-18T14:14:37;4.78;;;3.13;;
39654;SDS011;25336;59.944;11.010;2023-09-18T14:17:05;3.38;;;2.70;;
39654;SDS011;25336;59.944;11.010;2023-09-18T14:19:30;3.03;;;2.67;;
39654;SDS011;25336;59.944;11.010;2023-09-18T14:21:56;5.22;;;3.15;;
39654;SDS011;25336;59.944;11.010;2023-09-18T14:24:22;4.72;;;2.88;;
39654;SDS011;25336;59.944;11.010;2023-09-18T14:26:51;3.97;;;3.22;;
39654;SDS011;25336;59.944;11.010;2023-09-18T14:29:17;5.28;;;2.60;;
39654;SDS011;25336;59.944;11.010;2023-09-18T14:31:42;3.85;;;2.53;;
39654;SDS011;25336;59.944;11.010;2023-09-18T14:34:09;5.60;;;2.63;;
39654;SDS011;25336;59.944;11.010;2023-09-18T14:36:34;4.97;;;2.30;;
39654;SDS011;25336;59.944;11.010;2023-09-18T14:39:00;3.28;;;2.50;;
39654;SDS011;25336;59.944;11.010;2023-09-18T14:41:27;4.90;;;2.47;;
39654;SDS011;25336;59.944;11.010;2023-09-18T14:43:52;2.95;;;2.22;;
39654;SDS011;25336;59.944;11.010;2023-09-18T14:46:18;3.17;;;2.50;;
39654;SDS011;25336;59.944;11.010;2023-09-18T14:48:45;2.70;;;2.25;;
39654;SDS011;25336;59.944;11.010;2023-09-18T14:51:11;3.25;;;2.20;;
39654;SDS011;25336;59.944;11.010;2023-09-18T14:53:37;2.22;;;1.80;;